Terminal Aerodrome Forecast
Issued by NWS Twin Cities, MN

Home | Current Version | Previous Version | Graphics & Text | Print | Product List | Glossary On
Versions: 1 2 3 4 5 6 7 8 9 10 11 12 13 14 15 16 17 18 19 20 21 22 23
000
FTUS43 KMPX 190100 AAB
TAFEAU
TAF AMD
KEAU 190129Z 1901/1924 09005KT P6SM VCTS BKN040CB
      TEMPO 1901/1902 27020G35KT TSRA BKN050CB
     FM190700 28003KT 3SM BR OVC008
     FM190900 28003KT 1SM BR OVC004
     FM191500 31006KT P6SM SCT010 BKN100
     FM191800 31007KT P6SM VCSH SCT060 BKN100=

USA.gov is the U.S. government's official web portal to all federal, state and local government web resources and services.